sensor_id;sensor_type;location;lat;lon;timestamp;pressure;altitude;pressure_sealevel;temperature;humidity
28588;BME280;15787;49.662;10.162;2023-02-17T00:00:20;99904.56;;;9.39;80.52
28588;BME280;15787;49.662;10.162;2023-02-17T00:02:54;99901.81;;;9.32;80.42
28588;BME280;15787;49.662;10.162;2023-02-17T00:05:28;99901.38;;;9.37;79.72
28588;BME280;15787;49.662;10.162;2023-02-17T00:08:01;99884.59;;;9.51;79.62
28588;BME280;15787;49.662;10.162;2023-02-17T00:10:33;99893.41;;;9.39;79.66
28588;BME280;15787;49.662;10.162;2023-02-17T00:13:06;99889.41;;;9.47;79.66
28588;BME280;15787;49.662;10.162;2023-02-17T00:15:41;99887.78;;;9.61;79.78
28588;BME280;15787;49.662;10.162;2023-02-17T00:18:13;99886.56;;;9.62;78.89
28588;BME280;15787;49.662;10.162;2023-02-17T00:20:46;99883.00;;;9.54;78.70
28588;BME280;15787;49.662;10.162;2023-02-17T00:23:19;99888.19;;;9.52;79.08
28588;BME280;15787;49.662;10.162;2023-02-17T00:25:52;99880.25;;;9.47;79.42
28588;BME280;15787;49.662;10.162;2023-02-17T00:28:25;99872.22;;;9.60;79.28
28588;BME280;15787;49.662;10.162;2023-02-17T00:31:04;99873.88;;;9.50;79.14
28588;BME280;15787;49.662;10.162;2023-02-17T00:33:37;99878.28;;;9.40;79.50
28588;BME280;15787;49.662;10.162;2023-02-17T00:36:12;99877.44;;;9.54;79.51
28588;BME280;15787;49.662;10.162;2023-02-17T00:38:45;99874.19;;;9.70;79.58
28588;BME280;15787;49.662;10.162;2023-02-17T00:41:20;99874.59;;;9.68;78.52
28588;BME280;15787;49.662;10.162;2023-02-17T00:43:53;99873.06;;;9.49;79.88
28588;BME280;15787;49.662;10.162;2023-02-17T00:46:28;99868.28;;;9.50;81.39
28588;BME280;15787;49.662;10.162;2023-02-17T00:49:01;99865.34;;;9.82;79.52
28588;BME280;15787;49.662;10.162;2023-02-17T00:51:34;99868.25;;;9.53;81.08
28588;BME280;15787;49.662;10.162;2023-02-17T00:54:08;99881.06;;;9.33;80.42
28588;BME280;15787;49.662;10.162;2023-02-17T00:56:41;99871.06;;;9.57;81.01
28588;BME280;15787;49.662;10.162;2023-02-17T00:59:14;99886.66;;;9.37;80.20
28588;BME280;15787;49.662;10.162;2023-02-17T01:01:48;99881.09;;;9.30;81.93
28588;BME280;15787;49.662;10.162;2023-02-17T01:04:21;99881.47;;;9.39;82.88
28588;BME280;15787;49.662;10.162;2023-02-17T01:06:54;99878.75;;;9.14;84.35
28588;BME280;15787;49.662;10.162;2023-02-17T01:09:27;99876.38;;;9.06;85.81
28588;BME280;15787;49.662;10.162;2023-02-17T01:12:00;99869.22;;;9.01;86.33
28588;BME280;15787;49.662;10.162;2023-02-17T01:14:35;99871.63;;;8.92;87.28
28588;BME280;15787;49.662;10.162;2023-02-17T01:17:09;99863.25;;;9.06;88.16
28588;BME280;15787;49.662;10.162;2023-02-17T01:19:42;99861.97;;;9.28;88.04
28588;BME280;15787;49.662;10.162;2023-02-17T01:22:15;99861.66;;;9.12;86.82
28588;BME280;15787;49.662;10.162;2023-02-17T01:24:48;99865.19;;;9.27;86.89
28588;BME280;15787;49.662;10.162;2023-02-17T01:27:21;99866.81;;;9.03;87.41
28588;BME280;15787;49.662;10.162;2023-02-17T01:29:54;99866.84;;;9.07;88.03
28588;BME280;15787;49.662;10.162;2023-02-17T01:32:28;99854.44;;;9.22;89.11
28588;BME280;15787;49.662;10.162;2023-02-17T01:35:01;99851.66;;;9.18;88.85
28588;BME280;15787;49.662;10.162;2023-02-17T01:37:38;99838.59;;;8.90;88.87
28588;BME280;15787;49.662;10.162;2023-02-17T01:40:12;99839.00;;;8.96;89.20
28588;BME280;15787;49.662;10.162;2023-02-17T01:42:45;99844.94;;;9.12;89.60
28588;BME280;15787;49.662;10.162;2023-02-17T01:45:31;99844.56;;;8.93;88.90
28588;BME280;15787;49.662;10.162;2023-02-17T01:48:08;99834.63;;;8.92;88.60
28588;BME280;15787;49.662;10.162;2023-02-17T01:50:47;99821.44;;;9.17;89.29
28588;BME280;15787;49.662;10.162;2023-02-17T01:53:24;99824.22;;;9.20;89.08
28588;BME280;15787;49.662;10.162;2023-02-17T01:55:59;99822.66;;;9.02;89.06
28588;BME280;15787;49.662;10.162;2023-02-17T01:58:33;99833.41;;;9.07;88.91
28588;BME280;15787;49.662;10.162;2023-02-17T02:01:07;99823.84;;;9.01;89.39
28588;BME280;15787;49.662;10.162;2023-02-17T02:03:42;99815.91;;;8.99;89.81
28588;BME280;15787;49.662;10.162;2023-02-17T02:06:19;99802.75;;;9.07;90.38
28588;BME280;15787;49.662;10.162;2023-02-17T02:08:58;99809.53;;;8.95;91.48
28588;BME280;15787;49.662;10.162;2023-02-17T02:11:34;99796.38;;;9.06;91.45
28588;BME280;15787;49.662;10.162;2023-02-17T02:14:09;99795.97;;;9.08;91.91
28588;BME280;15787;49.662;10.162;2023-02-17T02:16:50;99792.03;;;8.98;92.45
28588;BME280;15787;49.662;10.162;2023-02-17T02:19:49;99793.97;;;9.08;92.68
28588;BME280;15787;49.662;10.162;2023-02-17T02:28:43;99796.78;;;9.05;93.25
28588;BME280;15787;49.662;10.162;2023-02-17T02:31:28;99788.84;;;9.00;93.53
28588;BME280;15787;49.662;10.162;2023-02-17T02:34:05;99788.41;;;9.08;93.06
28588;BME280;15787;49.662;10.162;2023-02-17T02:36:43;99789.59;;;9.14;93.46
28588;BME280;15787;49.662;10.162;2023-02-17T02:39:19;99780.06;;;9.08;93.19
28588;BME280;15787;49.662;10.162;2023-02-17T02:41:55;99782.00;;;9.22;93.52
28588;BME280;15787;49.662;10.162;2023-02-17T02:44:30;99779.25;;;9.08;93.70
28588;BME280;15787;49.662;10.162;2023-02-17T02:47:05;99780.06;;;9.12;93.97
28588;BME280;15787;49.662;10.162;2023-02-17T02:49:40;99774.47;;;9.12;94.24
28588;BME280;15787;49.662;10.162;2023-02-17T02:52:17;99778.44;;;9.14;94.69
28588;BME280;15787;49.662;10.162;2023-02-17T02:55:01;99770.84;;;9.25;94.91
28588;BME280;15787;49.662;10.162;2023-02-17T02:57:41;99764.94;;;9.09;95.15
28588;BME280;15787;49.662;10.162;2023-02-17T03:00:20;99782.03;;;9.08;94.83
28588;BME280;15787;49.662;10.162;2023-02-17T03:02:58;99780.00;;;9.19;94.77
28588;BME280;15787;49.662;10.162;2023-02-17T03:05:40;99770.09;;;9.11;94.45
28588;BME280;15787;49.662;10.162;2023-02-17T03:08:19;99769.28;;;9.17;95.49
28588;BME280;15787;49.662;10.162;2023-02-17T03:10:55;99767.25;;;9.21;94.27
28588;BME280;15787;49.662;10.162;2023-02-17T03:13:28;99774.84;;;9.14;94.43
28588;BME280;15787;49.662;10.162;2023-02-17T03:16:04;99770.88;;;9.11;94.55
28588;BME280;15787;49.662;10.162;2023-02-17T03:18:38;99769.31;;;9.07;94.55
28588;BME280;15787;49.662;10.162;2023-02-17T03:21:15;99764.53;;;9.11;94.91
28588;BME280;15787;49.662;10.162;2023-02-17T03:23:48;99772.91;;;9.04;94.84
28588;BME280;15787;49.662;10.162;2023-02-17T03:26:21;99760.50;;;9.19;95.12
28588;BME280;15787;49.662;10.162;2023-02-17T03:28:54;99755.41;;;9.07;94.52
28588;BME280;15787;49.662;10.162;2023-02-17T03:31:27;99764.13;;;9.09;94.72
28588;BME280;15787;49.662;10.162;2023-02-17T03:34:01;99762.13;;;9.16;94.19
28588;BME280;15787;49.662;10.162;2023-02-17T03:36:36;99760.13;;;9.20;93.82
28588;BME280;15787;49.662;10.162;2023-02-17T03:39:09;99757.75;;;9.08;93.02
28588;BME280;15787;49.662;10.162;2023-02-17T03:41:42;99756.97;;;9.15;92.25
28588;BME280;15787;49.662;10.162;2023-02-17T03:44:15;99760.97;;;9.07;92.04
28588;BME280;15787;49.662;10.162;2023-02-17T03:46:48;99757.38;;;9.10;91.97
28588;BME280;15787;49.662;10.162;2023-02-17T03:49:20;99760.13;;;9.20;91.56
28588;BME280;15787;49.662;10.162;2023-02-17T03:51:54;99751.34;;;9.22;91.93
28588;BME280;15787;49.662;10.162;2023-02-17T03:54:28;99753.72;;;9.27;91.17
28588;BME280;15787;49.662;10.162;2023-02-17T03:57:01;99751.38;;;9.15;92.08
28588;BME280;15787;49.662;10.162;2023-02-17T03:59:34;99748.84;;;9.41;92.90
28588;BME280;15787;49.662;10.162;2023-02-17T04:02:07;99752.09;;;9.29;93.26
28588;BME280;15787;49.662;10.162;2023-02-17T04:04:40;99745.78;;;9.22;93.93
28588;BME280;15787;49.662;10.162;2023-02-17T04:07:14;99751.63;;;9.41;93.62
28588;BME280;15787;49.662;10.162;2023-02-17T04:09:47;99744.41;;;9.51;94.51
28588;BME280;15787;49.662;10.162;2023-02-17T04:12:20;99749.28;;;9.40;94.69
28588;BME280;15787;49.662;10.162;2023-02-17T04:14:53;99749.59;;;9.49;95.17
28588;BME280;15787;49.662;10.162;2023-02-17T04:17:26;99741.72;;;9.37;95.77
28588;BME280;15787;49.662;10.162;2023-02-17T04:19:59;99738.94;;;9.37;95.43
28588;BME280;15787;49.662;10.162;2023-02-17T04:22:33;99735.34;;;9.40;95.37
28588;BME280;15787;49.662;10.162;2023-02-17T04:25:06;99736.94;;;9.37;95.34
28588;BME280;15787;49.662;10.162;2023-02-17T04:27:39;99740.44;;;9.52;95.14
28588;BME280;15787;49.662;10.162;2023-02-17T04:30:13;99739.69;;;9.41;94.56
28588;BME280;15787;49.662;10.162;2023-02-17T04:32:46;99737.28;;;9.46;94.92
28588;BME280;15787;49.662;10.162;2023-02-17T04:35:19;99747.19;;;9.51;94.31
28588;BME280;15787;49.662;10.162;2023-02-17T04:37:54;99743.66;;;9.43;94.09
28588;BME280;15787;49.662;10.162;2023-02-17T04:40:27;99744.09;;;9.38;93.77
28588;BME280;15787;49.662;10.162;2023-02-17T04:43:00;99743.66;;;9.47;93.21
28588;BME280;15787;49.662;10.162;2023-02-17T04:45:33;99731.38;;;9.37;92.99
28588;BME280;15787;49.662;10.162;2023-02-17T04:48:06;99756.72;;;9.57;92.56
28588;BME280;15787;49.662;10.162;2023-02-17T04:50:39;99748.06;;;9.41;93.00
28588;BME280;15787;49.662;10.162;2023-02-17T04:53:13;99750.88;;;9.34;93.23
28588;BME280;15787;49.662;10.162;2023-02-17T04:55:47;99750.03;;;9.44;93.71
28588;BME280;15787;49.662;10.162;2023-02-17T04:58:21;99746.44;;;9.47;93.40
28588;BME280;15787;49.662;10.162;2023-02-17T05:00:53;99743.66;;;9.43;94.01
28588;BME280;15787;49.662;10.162;2023-02-17T05:03:30;99735.72;;;9.42;94.44
28588;BME280;15787;49.662;10.162;2023-02-17T05:06:03;99753.97;;;9.53;93.90
28588;BME280;15787;49.662;10.162;2023-02-17T05:08:38;99746.38;;;9.54;93.95
28588;BME280;15787;49.662;10.162;2023-02-17T05:11:11;99752.38;;;9.52;93.75
28588;BME280;15787;49.662;10.162;2023-02-17T05:13:44;99751.97;;;9.54;93.64
28588;BME280;15787;49.662;10.162;2023-02-17T05:16:17;99754.38;;;9.56;93.64
28588;BME280;15787;49.662;10.162;2023-02-17T05:18:50;99748.00;;;9.55;94.16
28588;BME280;15787;49.662;10.162;2023-02-17T05:21:23;99750.69;;;9.69;93.62
28588;BME280;15787;49.662;10.162;2023-02-17T05:23:57;99743.59;;;9.58;93.57
28588;BME280;15787;49.662;10.162;2023-02-17T05:26:30;99742.00;;;9.57;94.12
28588;BME280;15787;49.662;10.162;2023-02-17T05:29:03;99743.22;;;9.48;94.58
28588;BME280;15787;49.662;10.162;2023-02-17T05:31:36;99734.00;;;9.62;94.66
28588;BME280;15787;49.662;10.162;2023-02-17T05:34:11;99743.16;;;9.59;95.02
28588;BME280;15787;49.662;10.162;2023-02-17T05:36:44;99743.97;;;9.56;94.73
28588;BME280;15787;49.662;10.162;2023-02-17T05:39:18;99735.72;;;9.38;95.68
28588;BME280;15787;49.662;10.162;2023-02-17T05:41:51;99734.47;;;9.50;96.39
28588;BME280;15787;49.662;10.162;2023-02-17T05:44:26;99731.75;;;9.36;96.68
28588;BME280;15787;49.662;10.162;2023-02-17T05:46:59;99732.13;;;9.41;96.20
28588;BME280;15787;49.662;10.162;2023-02-17T05:49:32;99729.69;;;9.50;96.59
28588;BME280;15787;49.662;10.162;2023-02-17T05:52:05;99732.91;;;9.45;95.84
28588;BME280;15787;49.662;10.162;2023-02-17T05:54:40;99722.63;;;9.35;96.31
28588;BME280;15787;49.662;10.162;2023-02-17T05:57:13;99720.66;;;9.32;96.68
28588;BME280;15787;49.662;10.162;2023-02-17T05:59:46;99724.63;;;9.35;96.31
28588;BME280;15787;49.662;10.162;2023-02-17T06:02:18;99724.22;;;9.33;95.71
28588;BME280;15787;49.662;10.162;2023-02-17T06:04:51;99729.00;;;9.32;95.95
28588;BME280;15787;49.662;10.162;2023-02-17T06:07:24;99726.59;;;9.38;96.40
28588;BME280;15787;49.662;10.162;2023-02-17T06:09:59;99719.41;;;9.37;96.68
28588;BME280;15787;49.662;10.162;2023-02-17T06:12:32;99730.13;;;9.42;96.68
28588;BME280;15787;49.662;10.162;2023-02-17T06:15:05;99728.09;;;9.53;96.75
28588;BME280;15787;49.662;10.162;2023-02-17T06:17:38;99732.06;;;9.52;96.13
28588;BME280;15787;49.662;10.162;2023-02-17T06:20:12;99732.13;;;9.45;96.04
28588;BME280;15787;49.662;10.162;2023-02-17T06:22:45;99730.50;;;9.47;97.11
28588;BME280;15787;49.662;10.162;2023-02-17T06:25:19;99732.06;;;9.56;96.69
28588;BME280;15787;49.662;10.162;2023-02-17T06:27:52;99727.25;;;9.56;96.72
28588;BME280;15787;49.662;10.162;2023-02-17T06:30:25;99730.41;;;9.62;97.06
28588;BME280;15787;49.662;10.162;2023-02-17T06:32:58;99726.44;;;9.59;97.52
28588;BME280;15787;49.662;10.162;2023-02-17T06:35:31;99727.69;;;9.51;98.02
28588;BME280;15787;49.662;10.162;2023-02-17T06:38:04;99728.84;;;9.61;97.94
28588;BME280;15787;49.662;10.162;2023-02-17T06:40:39;99728.84;;;9.57;97.91
28588;BME280;15787;49.662;10.162;2023-02-17T06:43:11;99729.63;;;9.61;98.33
28588;BME280;15787;49.662;10.162;2023-02-17T06:45:45;99728.84;;;9.61;98.07
28588;BME280;15787;49.662;10.162;2023-02-17T06:48:17;99725.69;;;9.51;98.75
28588;BME280;15787;49.662;10.162;2023-02-17T06:50:51;99715.28;;;9.63;98.72
28588;BME280;15787;49.662;10.162;2023-02-17T06:53:24;99719.69;;;9.60;98.59
28588;BME280;15787;49.662;10.162;2023-02-17T06:55:58;99723.25;;;9.61;98.86
28588;BME280;15787;49.662;10.162;2023-02-17T06:58:31;99730.03;;;9.60;99.22
28588;BME280;15787;49.662;10.162;2023-02-17T07:01:05;99743.97;;;9.60;98.98
28588;BME280;15787;49.662;10.162;2023-02-17T07:03:40;99739.56;;;9.62;99.71
28588;BME280;15787;49.662;10.162;2023-02-17T07:06:13;99742.75;;;9.64;99.57
28588;BME280;15787;49.662;10.162;2023-02-17T07:08:46;99741.19;;;9.60;99.41
28588;BME280;15787;49.662;10.162;2023-02-17T07:11:20;99749.59;;;9.52;100.00
28588;BME280;15787;49.662;10.162;2023-02-17T07:13:53;99753.56;;;9.51;100.00
28588;BME280;15787;49.662;10.162;2023-02-17T07:16:26;99740.44;;;9.52;100.00
28588;BME280;15787;49.662;10.162;2023-02-17T07:18:59;99741.66;;;9.44;100.00
28588;BME280;15787;49.662;10.162;2023-02-17T07:21:31;99741.66;;;9.44;100.00
28588;BME280;15787;49.662;10.162;2023-02-17T07:24:04;99742.88;;;9.43;100.00
28588;BME280;15787;49.662;10.162;2023-02-17T07:26:39;99750.47;;;9.39;100.00
28588;BME280;15787;49.662;10.162;2023-02-17T07:29:12;99761.59;;;9.42;100.00
28588;BME280;15787;49.662;10.162;2023-02-17T07:31:45;99764.28;;;9.57;100.00
28588;BME280;15787;49.662;10.162;2023-02-17T07:34:18;99769.13;;;9.49;100.00
28588;BME280;15787;49.662;10.162;2023-02-17T07:36:50;99762.31;;;9.53;100.00
28588;BME280;15787;49.662;10.162;2023-02-17T07:39:23;99761.94;;;9.55;100.00
28588;BME280;15787;49.662;10.162;2023-02-17T07:41:57;99767.88;;;9.57;100.00
28588;BME280;15787;49.662;10.162;2023-02-17T07:44:31;99773.03;;;9.62;100.00
28588;BME280;15787;49.662;10.162;2023-02-17T07:47:05;99772.63;;;9.64;100.00
28588;BME280;15787;49.662;10.162;2023-02-17T07:49:38;99773.78;;;9.66;100.00
28588;BME280;15787;49.662;10.162;2023-02-17T07:52:10;99771.81;;;9.67;100.00
28588;BME280;15787;49.662;10.162;2023-02-17T07:54:43;99784.94;;;9.73;100.00
28588;BME280;15787;49.662;10.162;2023-02-17T07:57:17;99781.34;;;9.76;100.00
28588;BME280;15787;49.662;10.162;2023-02-17T07:59:50;99773.84;;;9.59;100.00
28588;BME280;15787;49.662;10.162;2023-02-17T08:02:23;99773.72;;;9.77;100.00
28588;BME280;15787;49.662;10.162;2023-02-17T08:04:56;99779.72;;;9.75;100.00
28588;BME280;15787;49.662;10.162;2023-02-17T08:07:29;99778.56;;;9.69;100.00
28588;BME280;15787;49.662;10.162;2023-02-17T08:10:04;99779.72;;;9.79;100.00
28588;BME280;15787;49.662;10.162;2023-02-17T08:12:56;99771.69;;;9.84;100.00
28588;BME280;15787;49.662;10.162;2023-02-17T08:15:46;99777.75;;;9.72;100.00
28588;BME280;15787;49.662;10.162;2023-02-17T08:18:19;99769.78;;;9.74;100.00
28588;BME280;15787;49.662;10.162;2023-02-17T08:20:51;99772.97;;;9.76;100.00
28588;BME280;15787;49.662;10.162;2023-02-17T08:23:25;99767.78;;;9.78;100.00
28588;BME280;15787;49.662;10.162;2023-02-17T08:26:00;99770.13;;;9.83;100.00
28588;BME280;15787;49.662;10.162;2023-02-17T08:28:34;99776.84;;;9.89;100.00
28588;BME280;15787;49.662;10.162;2023-02-17T08:31:14;99788.41;;;9.91;100.00
28588;BME280;15787;49.662;10.162;2023-02-17T08:33:47;99782.03;;;9.87;100.00
28588;BME280;15787;49.662;10.162;2023-02-17T08:36:21;99784.06;;;9.83;100.00
28588;BME280;15787;49.662;10.162;2023-02-17T08:38:55;99793.56;;;9.93;100.00
28588;BME280;15787;49.662;10.162;2023-02-17T08:41:30;99798.72;;;9.94;100.00
28588;BME280;15787;49.662;10.162;2023-02-17T08:44:08;99788.41;;;9.91;100.00
28588;BME280;15787;49.662;10.162;2023-02-17T08:46:45;99791.97;;;9.92;100.00
28588;BME280;15787;49.662;10.162;2023-02-17T08:49:21;99783.16;;;9.97;100.00
28588;BME280;15787;49.662;10.162;2023-02-17T08:51:54;99785.50;;;10.09;100.00
28588;BME280;15787;49.662;10.162;2023-02-17T08:54:27;99777.94;;;10.02;100.00
28588;BME280;15787;49.662;10.162;2023-02-17T08:57:00;99778.75;;;9.99;100.00
28588;BME280;15787;49.662;10.162;2023-02-17T08:59:34;99778.00;;;9.95;100.00
28588;BME280;15787;49.662;10.162;2023-02-17T09:02:07;99777.47;;;10.14;100.00
28588;BME280;15787;49.662;10.162;2023-02-17T09:04:39;99787.50;;;10.05;100.00
28588;BME280;15787;49.662;10.162;2023-02-17T09:07:14;99791.09;;;10.05;100.00
28588;BME280;15787;49.662;10.162;2023-02-17T09:09:47;99792.34;;;9.97;100.00
28588;BME280;15787;49.662;10.162;2023-02-17T09:12:20;99799.88;;;10.00;100.00
28588;BME280;15787;49.662;10.162;2023-02-17T09:14:54;99812.59;;;10.12;100.00
28588;BME280;15787;49.662;10.162;2023-02-17T09:17:28;99810.19;;;10.14;100.00
28588;BME280;15787;49.662;10.162;2023-02-17T09:20:01;99799.34;;;10.23;100.00
28588;BME280;15787;49.662;10.162;2023-02-17T09:22:46;99797.81;;;10.15;100.00
28588;BME280;15787;49.662;10.162;2023-02-17T09:25:22;99800.22;;;10.13;100.00
28588;BME280;15787;49.662;10.162;2023-02-17T09:27:55;99804.19;;;10.19;100.00
28588;BME280;15787;49.662;10.162;2023-02-17T09:30:31;99804.56;;;10.21;100.00
28588;BME280;15787;49.662;10.162;2023-02-17T09:33:04;99805.34;;;10.22;100.00
28588;BME280;15787;49.662;10.162;2023-02-17T09:35:38;99798.53;;;10.26;100.00
28588;BME280;15787;49.662;10.162;2023-02-17T09:38:11;99791.72;;;10.31;100.00
28588;BME280;15787;49.662;10.162;2023-02-17T09:40:45;99789.72;;;10.31;100.00
28588;BME280;15787;49.662;10.162;2023-02-17T09:43:23;99792.53;;;10.28;100.00
28588;BME280;15787;49.662;10.162;2023-02-17T09:46:03;99790.53;;;10.28;100.00
28588;BME280;15787;49.662;10.162;2023-02-17T09:48:38;99804.88;;;10.30;100.00
28588;BME280;15787;49.662;10.162;2023-02-17T09:51:16;99798.81;;;10.42;100.00
28588;BME280;15787;49.662;10.162;2023-02-17T09:53:54;99792.06;;;10.40;100.00
28588;BME280;15787;49.662;10.162;2023-02-17T09:56:32;99784.00;;;10.45;100.00
28588;BME280;15787;49.662;10.162;2023-02-17T09:59:10;99790.03;;;10.40;100.00
28588;BME280;15787;49.662;10.162;2023-02-17T10:01:48;99790.75;;;10.48;100.00
28588;BME280;15787;49.662;10.162;2023-02-17T10:04:27;99797.50;;;10.54;100.00
28588;BME280;15787;49.662;10.162;2023-02-17T10:07:07;99794.72;;;10.50;100.00
28588;BME280;15787;49.662;10.162;2023-02-17T10:09:47;99784.28;;;10.58;100.00
28588;BME280;15787;49.662;10.162;2023-02-17T10:12:23;99779.88;;;10.60;100.00
28588;BME280;15787;49.662;10.162;2023-02-17T10:15:02;99777.81;;;10.68;100.00
28588;BME280;15787;49.662;10.162;2023-02-17T10:17:40;99770.31;;;10.58;100.00
28588;BME280;15787;49.662;10.162;2023-02-17T10:20:18;99781.44;;;10.65;100.00
28588;BME280;15787;49.662;10.162;2023-02-17T10:22:58;99777.50;;;10.59;100.00
28588;BME280;15787;49.662;10.162;2023-02-17T10:25:47;99775.84;;;10.65;100.00
28588;BME280;15787;49.662;10.162;2023-02-17T10:28:33;99778.88;;;10.81;100.00
28588;BME280;15787;49.662;10.162;2023-02-17T10:31:12;99794.06;;;10.80;100.00
28588;BME280;15787;49.662;10.162;2023-02-17T10:33:52;99794.16;;;10.69;100.00
28588;BME280;15787;49.662;10.162;2023-02-17T10:36:34;99785.41;;;10.67;100.00
28588;BME280;15787;49.662;10.162;2023-02-17T10:39:25;99791.31;;;10.73;100.00
28588;BME280;15787;49.662;10.162;2023-02-17T10:42:02;99787.06;;;10.61;100.00
28588;BME280;15787;49.662;10.162;2023-02-17T10:44:36;99787.81;;;10.65;100.00
28588;BME280;15787;49.662;10.162;2023-02-17T10:47:09;99782.28;;;10.58;100.00
28588;BME280;15787;49.662;10.162;2023-02-17T10:49:46;99790.28;;;10.60;100.00
28588;BME280;15787;49.662;10.162;2023-02-17T10:52:23;99781.50;;;10.58;100.00
28588;BME280;15787;49.662;10.162;2023-02-17T10:55:00;99778.31;;;10.56;100.00
28588;BME280;15787;49.662;10.162;2023-02-17T10:57:55;99781.38;;;10.72;100.00
28588;BME280;15787;49.662;10.162;2023-02-17T11:00:31;99785.06;;;10.62;100.00
28588;BME280;15787;49.662;10.162;2023-02-17T11:03:04;99787.84;;;10.62;100.00
28588;BME280;15787;49.662;10.162;2023-02-17T11:05:38;99791.03;;;10.60;100.00
28588;BME280;15787;49.662;10.162;2023-02-17T11:08:26;99782.66;;;10.60;100.00
28588;BME280;15787;49.662;10.162;2023-02-17T11:11:03;99785.88;;;10.59;100.00
28588;BME280;15787;49.662;10.162;2023-02-17T11:13:37;99772.75;;;10.56;100.00
28588;BME280;15787;49.662;10.162;2023-02-17T11:16:21;99788.69;;;10.59;100.00
28588;BME280;15787;49.662;10.162;2023-02-17T11:18:56;99783.84;;;10.63;100.00
28588;BME280;15787;49.662;10.162;2023-02-17T11:21:31;99775.88;;;10.61;100.00
28588;BME280;15787;49.662;10.162;2023-02-17T11:24:05;99779.44;;;10.65;100.00
28588;BME280;15787;49.662;10.162;2023-02-17T11:26:38;99776.59;;;10.69;100.00
28588;BME280;15787;49.662;10.162;2023-02-17T11:29:16;99772.72;;;10.59;100.00
28588;BME280;15787;49.662;10.162;2023-02-17T11:31:54;99783.81;;;10.66;100.00
28588;BME280;15787;49.662;10.162;2023-02-17T11:34:29;99770.94;;;10.76;100.00
28588;BME280;15787;49.662;10.162;2023-02-17T11:37:21;99781.38;;;10.72;100.00
28588;BME280;15787;49.662;10.162;2023-02-17T11:39:55;99779.75;;;10.74;100.00
28588;BME280;15787;49.662;10.162;2023-02-17T11:42:30;99777.31;;;10.76;100.00
28588;BME280;15787;49.662;10.162;2023-02-17T11:47:57;99777.78;;;10.71;100.00
28588;BME280;15787;49.662;10.162;2023-02-17T11:50:43;99773.81;;;10.69;100.00
28588;BME280;15787;49.662;10.162;2023-02-17T11:53:27;99775.78;;;10.72;100.00
28588;BME280;15787;49.662;10.162;2023-02-17T11:56:12;99774.53;;;10.76;100.00
28588;BME280;15787;49.662;10.162;2023-02-17T11:59:02;99765.81;;;10.71;100.00
28588;BME280;15787;49.662;10.162;2023-02-17T12:01:53;99766.13;;;10.80;100.00
28588;BME280;15787;49.662;10.162;2023-02-17T12:04:29;99771.75;;;10.73;100.00
28588;BME280;15787;49.662;10.162;2023-02-17T12:07:20;99775.44;;;10.66;100.00
28588;BME280;15787;49.662;10.162;2023-02-17T12:10:04;99780.59;;;10.68;100.00
28588;BME280;15787;49.662;10.162;2023-02-17T12:12:55;99775.00;;;10.68;100.00
28588;BME280;15787;49.662;10.162;2023-02-17T12:15:39;99769.88;;;10.63;100.00
28588;BME280;15787;49.662;10.162;2023-02-17T12:18:29;99770.66;;;10.63;100.00
28588;BME280;15787;49.662;10.162;2023-02-17T12:21:08;99760.31;;;10.64;100.00
28588;BME280;15787;49.662;10.162;2023-02-17T12:24:10;99754.16;;;10.79;100.00
28588;BME280;15787;49.662;10.162;2023-02-17T12:26:51;99750.91;;;10.85;100.00
28588;BME280;15787;49.662;10.162;2023-02-17T12:29:37;99756.97;;;10.76;100.00
28588;BME280;15787;49.662;10.162;2023-02-17T12:32:22;99761.81;;;10.72;100.00
28588;BME280;15787;49.662;10.162;2023-02-17T12:35:09;99766.59;;;10.71;100.00
28588;BME280;15787;49.662;10.162;2023-02-17T12:37:49;99766.50;;;10.82;100.00
28588;BME280;15787;49.662;10.162;2023-02-17T12:40:31;99752.16;;;10.80;100.00
28588;BME280;15787;49.662;10.162;2023-02-17T12:43:17;99756.50;;;10.85;100.00
28588;BME280;15787;49.662;10.162;2023-02-17T12:45:54;99738.81;;;10.95;100.00
28588;BME280;15787;49.662;10.162;2023-02-17T12:48:32;99749.66;;;10.89;100.00
28588;BME280;15787;49.662;10.162;2023-02-17T12:51:10;99742.53;;;10.85;100.00
28588;BME280;15787;49.662;10.162;2023-02-17T12:53:46;99733.94;;;11.02;100.00
28588;BME280;15787;49.662;10.162;2023-02-17T12:56:41;99723.66;;;10.96;100.00
28588;BME280;15787;49.662;10.162;2023-02-17T12:59:19;99726.00;;;10.97;100.00
28588;BME280;15787;49.662;10.162;2023-02-17T13:01:58;99717.25;;;10.95;100.00
28588;BME280;15787;49.662;10.162;2023-02-17T13:04:33;99711.34;;;10.90;100.00
28588;BME280;15787;49.662;10.162;2023-02-17T13:07:17;99713.53;;;11.05;100.00
28588;BME280;15787;49.662;10.162;2023-02-17T13:09:53;99710.78;;;11.02;100.00
28588;BME280;15787;49.662;10.162;2023-02-17T13:12:36;99700.63;;;11.15;100.00
28588;BME280;15787;49.662;10.162;2023-02-17T13:15:36;99691.97;;;11.36;100.00
28588;BME280;15787;49.662;10.162;2023-02-17T13:18:12;99713.41;;;11.46;100.00
28588;BME280;15787;49.662;10.162;2023-02-17T13:20:54;99697.13;;;11.37;100.00
28588;BME280;15787;49.662;10.162;2023-02-17T13:23:33;99687.84;;;11.44;100.00
28588;BME280;15787;49.662;10.162;2023-02-17T13:26:34;99687.56;;;11.35;100.00
28588;BME280;15787;49.662;10.162;2023-02-17T13:29:19;99691.28;;;11.28;100.00
28588;BME280;15787;49.662;10.162;2023-02-17T13:31:55;99696.88;;;11.28;100.00
28588;BME280;15787;49.662;10.162;2023-02-17T13:34:32;99687.56;;;11.35;100.00
28588;BME280;15787;49.662;10.162;2023-02-17T13:37:20;99697.84;;;11.41;100.00
28588;BME280;15787;49.662;10.162;2023-02-17T13:39:57;99688.41;;;11.32;100.00
28588;BME280;15787;49.662;10.162;2023-02-17T13:42:37;99683.16;;;11.37;100.00
28588;BME280;15787;49.662;10.162;2023-02-17T13:45:13;99686.59;;;11.49;100.00
28588;BME280;15787;49.662;10.162;2023-02-17T13:47:52;99688.59;;;11.48;100.00